Terminal Aerodrome Forecast
Issued by NWS

Home | Current Version | Previous Version | Text Only | Print | Product List | Glossary On
Versions: 1 2 3 4 5 6 7 8 9 10 11 12 13 14
014
FTUS43 KGRR 290540
TAFMKG
TAF
KMKG 290540Z 2906/3006 06005KT P6SM VCSH BKN100
     FM291900 06005KT P6SM VCTS BKN035CB
     FM300200 07007KT P6SM BKN050=

USA.gov is the U.S. government's official web portal to all federal, state and local government web resources and services.